Hauptseite
METAR-TAF:

METAR-TAF

Flughäfen :

Heritage Field Airport

Pottstown, Pennsylvania, Vereinigte Staaten

Breite: 40-14-18N, Länge: 075-33-26W, Höhe: 89 m

Beobachtung

Neuester Wetterbericht von vor 17 Minuten, um 20:54 UTC
Wind 4 kt aus Süd
Temperatur 8°C
Luftfeuchtigkeit 100%
Luftdruck 1012 hPa
Sichtweite: 6.4 km
Aufgelockert bewölkt in der Höhe von 900 ft
Durchbrochene Bewölkung in der Höhe von 3600 ft
Geschlossene Wolkendecke in der Höhe von 4800 ft
Regen, feuchter Dunst

METAR: KPTW 092054Z AUTO 18004KT 4SM RA BR SCT009 BKN036 OVC048 08/08 A2988 RMK AO2 SLP118 P0010 60027 T00780078 56034

Zeit: 16:11 (21:11 UTC)


TAF: fehlend

Wetterbeobachtungen und Prognosen von mehr als 4000 Flughäfen (METAR und TAF Bericht).

Die verfügbaren Stationen werden durch gelbe und rote Markierungen auf der Karte dargestellt.

Führen Sie die Maus auf sie, um den Namen der Station zu sehen.

Darauf klicken, um die Beobachtung von Wetterbeobachtungen und Prognosen zu sehen.

Um die Karte zu ändern : klicken Sie auf den grünen Tasten mit einem schwarzen Kreuz Zum Vergrößern, auf den grünen Button mit einem Gedankenstrich zu verkleinern, oder auf die grünen Pfeile für benachbarte Karten.


METAR-TAF: